createdAt,value
2023-03-05T00:01:53.562Z,96575.78
2023-03-05T00:06:56.844Z,96553.22
2023-03-05T00:11:59.414Z,96563.97
2023-03-05T00:17:02.140Z,96558.13
2023-03-05T00:22:04.831Z,96562.50
2023-03-05T00:27:07.427Z,96568.47
2023-03-05T00:32:10.199Z,96577.72
2023-03-05T00:37:12.962Z,96568.53
2023-03-05T00:42:15.570Z,96542.63
2023-03-05T00:47:19.098Z,96579.06
2023-03-05T00:52:21.703Z,96580.00
2023-03-05T00:57:24.272Z,96572.31
2023-03-05T01:02:26.970Z,96568.84
2023-03-05T01:07:29.519Z,96571.56
2023-03-05T01:12:32.191Z,96566.56
2023-03-05T01:17:34.920Z,96568.28
2023-03-05T01:22:37.504Z,96562.41
2023-03-05T01:27:40.098Z,96571.00
2023-03-05T01:32:43.381Z,96578.66
2023-03-05T01:37:46.449Z,96571.78
2023-03-05T01:42:58.426Z,96570.91
2023-03-05T01:48:01.112Z,96575.34
2023-03-05T01:53:07.596Z,96572.06
2023-03-05T01:58:13.982Z,96575.22
2023-03-05T02:03:17.134Z,96572.03
2023-03-05T02:08:22.642Z,96561.91
2023-03-05T02:13:28.281Z,96573.72
2023-03-05T02:18:31.241Z,96546.72
2023-03-05T02:23:37.016Z,96570.19
2023-03-05T02:28:47.236Z,96571.72
2023-03-05T02:33:54.095Z,96561.72
2023-03-05T02:38:59.370Z,96562.47
2023-03-05T02:44:03.020Z,96560.94
2023-03-05T02:49:06.477Z,96561.78
2023-03-05T02:54:09.654Z,96549.81
2023-03-05T02:59:13.098Z,96556.66
2023-03-05T03:04:16.686Z,96556.81
2023-03-05T03:09:19.830Z,96558.66
2023-03-05T03:14:23.211Z,96554.34
2023-03-05T03:19:26.553Z,96544.41
2023-03-05T03:24:31.358Z,96553.72
2023-03-05T03:29:48.800Z,96547.88
2023-03-05T03:34:51.680Z,96539.41
2023-03-05T03:39:58.001Z,96536.09
2023-03-05T03:45:04.549Z,96541.09
2023-03-05T03:50:13.876Z,96535.97
2023-03-05T03:55:16.828Z,96537.72
2023-03-05T04:00:19.760Z,96544.44
2023-03-05T04:05:23.561Z,96538.56
2023-03-05T04:10:29.779Z,96545.31
2023-03-05T04:16:04.176Z,96531.91
2023-03-05T04:21:12.937Z,96548.72
2023-03-05T04:26:18.732Z,96546.81
2023-03-05T04:31:31.636Z,96548.44
2023-03-05T04:36:37.137Z,96554.50
2023-03-05T04:41:39.787Z,96543.53
2023-03-05T04:46:46.019Z,96554.50
2023-03-05T04:51:54.277Z,96542.69
2023-03-05T04:57:04.364Z,96540.88
2023-03-05T05:02:10.991Z,96566.91
2023-03-05T05:07:13.571Z,96550.09
2023-03-05T05:12:16.462Z,96569.34
2023-03-05T05:17:19.868Z,96542.38
2023-03-05T05:22:24.801Z,96569.88
2023-03-05T05:27:28.404Z,96568.25
2023-03-05T05:32:33.744Z,96557.22
2023-03-05T05:37:39.863Z,96564.72
2023-03-05T05:42:43.362Z,96577.34
2023-03-05T05:47:46.468Z,96573.78
2023-03-05T05:52:52.808Z,96591.56
2023-03-05T05:58:09.348Z,96589.88
2023-03-05T06:03:16.293Z,96591.41
2023-03-05T06:08:44.294Z,96587.91
2023-03-05T06:14:05.675Z,96572.78
2023-03-05T06:19:15.602Z,96599.34
2023-03-05T06:24:28.577Z,96598.19
2023-03-05T06:29:35.259Z,96603.63
2023-03-05T06:34:45.348Z,96606.66
2023-03-05T06:39:50.499Z,96601.44
2023-03-05T06:44:53.086Z,96609.69
2023-03-05T06:49:56.127Z,96625.56
2023-03-05T06:54:58.986Z,96613.47
2023-03-05T07:00:01.823Z,96627.56
2023-03-05T07:05:07.668Z,96634.09
2023-03-05T07:10:11.008Z,96637.47
2023-03-05T07:15:15.587Z,96648.44
2023-03-05T07:20:18.341Z,96656.84
2023-03-05T07:25:22.161Z,96655.59
2023-03-05T07:30:25.256Z,96663.84
2023-03-05T07:35:28.304Z,96668.03
2023-03-05T07:40:32.575Z,96684.25
2023-03-05T07:45:35.498Z,96689.97
2023-03-05T07:50:38.414Z,96695.91
2023-03-05T07:55:45.877Z,96704.69
2023-03-05T08:00:48.993Z,96714.47
2023-03-05T08:05:52.342Z,96719.03
2023-03-05T08:10:55.271Z,96709.13
2023-03-05T08:15:57.907Z,96723.28
2023-03-05T08:21:01.040Z,96747.59
2023-03-05T08:26:12.544Z,96736.13
2023-03-05T08:31:18.628Z,96764.97
2023-03-05T08:36:22.336Z,96772.69
2023-03-05T08:41:25.557Z,96783.59
2023-03-05T08:46:28.265Z,96787.81
2023-03-05T08:51:31.006Z,96795.75
2023-03-05T08:56:35.393Z,96811.72
2023-03-05T09:01:38.068Z,96800.09
2023-03-05T09:06:40.877Z,96821.03
2023-03-05T09:11:43.468Z,96811.81
2023-03-05T09:16:46.237Z,96829.84
2023-03-05T09:21:48.863Z,96840.91
2023-03-05T09:26:51.933Z,96847.75
2023-03-05T09:31:55.039Z,96854.56
2023-03-05T09:36:57.666Z,96870.91
2023-03-05T09:42:27.171Z,96873.50
2023-03-05T09:47:47.963Z,96894.84
2023-03-05T09:52:57.967Z,96888.69
2023-03-05T09:58:12.218Z,96904.88
2023-03-05T10:03:42.760Z,96902.41
2023-03-05T10:09:22.601Z,96908.81
2023-03-05T10:14:31.486Z,96937.56
2023-03-05T10:19:37.196Z,96950.00
2023-03-05T10:24:48.550Z,96950.16
2023-03-05T10:30:06.674Z,96958.66
2023-03-05T10:35:37.198Z,96971.38
2023-03-05T10:41:06.779Z,96981.31
2023-03-05T10:46:16.900Z,96993.31
2023-03-05T10:51:44.194Z,96990.03
2023-03-05T10:56:47.300Z,97006.81
2023-03-05T11:02:08.643Z,97006.69
2023-03-05T11:07:17.661Z,97026.63
2023-03-05T11:12:22.040Z,97028.44
2023-03-05T11:17:30.488Z,97038.19
2023-03-05T11:22:36.057Z,97041.47
2023-03-05T11:27:47.366Z,97046.13
2023-03-05T11:33:08.411Z,97049.44
2023-03-05T11:38:27.424Z,97079.03
2023-03-05T11:43:34.321Z,97089.81
2023-03-05T11:48:39.983Z,97098.00
2023-03-05T11:53:45.113Z,97123.81
2023-03-05T11:59:07.275Z,97125.56
2023-03-05T12:04:10.076Z,97140.06
2023-03-05T12:09:23.049Z,97149.44
2023-03-05T12:14:44.787Z,97160.22
2023-03-05T12:20:06.749Z,97158.34
2023-03-05T12:25:32.573Z,97172.75
2023-03-05T12:30:35.211Z,97185.41
2023-03-05T12:35:41.248Z,97188.88
2023-03-05T12:40:44.118Z,97183.81
2023-03-05T12:45:46.842Z,97190.69
2023-03-05T12:50:51.624Z,97198.94
2023-03-05T12:56:13.542Z,97211.41
2023-03-05T13:01:27.920Z,97214.22
2023-03-05T13:06:34.269Z,97223.38
2023-03-05T13:11:39.337Z,97221.00
2023-03-05T13:16:42.105Z,97236.22
2023-03-05T13:21:44.814Z,97247.56
2023-03-05T13:26:47.423Z,97245.13
2023-03-05T13:31:54.585Z,97263.78
2023-03-05T13:36:57.424Z,97252.97
2023-03-05T13:42:19.989Z,97280.19
2023-03-05T13:47:24.602Z,97268.47
2023-03-05T13:52:33.748Z,97299.72
2023-03-05T13:57:38.757Z,97307.38
2023-03-05T14:02:44.325Z,97315.13
2023-03-05T14:07:51.785Z,97314.31
2023-03-05T14:12:55.053Z,97317.72
2023-03-05T14:18:12.791Z,97327.09
2023-03-05T14:23:36.933Z,97338.16
2023-03-05T14:28:39.581Z,97346.66
2023-03-05T14:33:42.597Z,97352.59
2023-03-05T14:38:45.544Z,97357.66
2023-03-05T14:43:48.505Z,97365.28
2023-03-05T14:48:51.353Z,97363.59
2023-03-05T14:53:55.142Z,97363.59
2023-03-05T14:58:57.861Z,97397.47
2023-03-05T15:04:01.238Z,97394.06
2023-03-05T15:09:05.358Z,97398.28
2023-03-05T15:14:07.987Z,97405.06
2023-03-05T15:19:13.909Z,97375.44
2023-03-05T15:24:16.605Z,97411.00
2023-03-05T15:29:19.302Z,97422.84
2023-03-05T15:34:21.903Z,97418.63
2023-03-05T15:39:27.390Z,97418.59
2023-03-05T15:44:30.021Z,97429.63
2023-03-05T15:49:33.416Z,97438.88
2023-03-05T15:54:37.173Z,97429.56
2023-03-05T15:59:40.539Z,97422.78
2023-03-05T16:04:43.174Z,97454.97
2023-03-05T16:09:49.779Z,97455.00
2023-03-05T16:14:52.627Z,97465.16
2023-03-05T16:19:56.144Z,97462.63
2023-03-05T16:25:01.338Z,97477.88
2023-03-05T16:30:07.191Z,97474.50
2023-03-05T16:35:12.525Z,97479.56
2023-03-05T16:40:15.677Z,97487.13
2023-03-05T16:45:18.392Z,97476.94
2023-03-05T16:50:21.156Z,97499.84
2023-03-05T16:55:23.938Z,97503.22
2023-03-05T17:00:26.696Z,97515.06
2023-03-05T17:05:29.996Z,97509.16
2023-03-05T17:10:33.370Z,97507.47
2023-03-05T17:15:36.107Z,97515.13
2023-03-05T17:20:38.722Z,97507.50
2023-03-05T17:25:41.621Z,97488.03
2023-03-05T17:30:44.693Z,97508.34
2023-03-05T17:35:47.662Z,97514.31
2023-03-05T17:40:50.790Z,97522.78
2023-03-05T17:45:53.511Z,97516.00
2023-03-05T17:50:56.525Z,97524.50
2023-03-05T17:55:59.224Z,97527.03
2023-03-05T18:01:02.077Z,97521.94
2023-03-05T18:06:05.156Z,97523.63
2023-03-05T18:11:07.776Z,97527.88
2023-03-05T18:16:12.384Z,97534.66
2023-03-05T18:21:19.921Z,97538.03
2023-03-05T18:26:22.605Z,97502.44
2023-03-05T18:31:28.384Z,97543.13
2023-03-05T18:36:31.077Z,97535.47
2023-03-05T18:41:33.916Z,97534.63
2023-03-05T18:46:36.769Z,97537.94
2023-03-05T18:51:41.859Z,97550.66
2023-03-05T18:56:44.480Z,97537.09
2023-03-05T19:01:47.143Z,97542.19
2023-03-05T19:06:49.941Z,97542.16
2023-03-05T19:11:52.632Z,97550.56
2023-03-05T19:16:55.176Z,97549.66
2023-03-05T19:22:00.802Z,97556.38
2023-03-05T19:27:10.282Z,97555.53
2023-03-05T19:32:17.594Z,97563.28
2023-03-05T19:37:20.276Z,97560.78
2023-03-05T19:42:23.188Z,97556.59
2023-03-05T19:47:26.209Z,97549.03
2023-03-05T19:52:28.842Z,97543.09
2023-03-05T19:57:31.436Z,97556.69
2023-03-05T20:02:34.084Z,97542.28
2023-03-05T20:07:36.742Z,97554.97
2023-03-05T20:12:39.461Z,97561.75
2023-03-05T20:17:45.750Z,97554.13
2023-03-05T20:22:48.458Z,97552.44
2023-03-05T20:27:52.089Z,97551.56
2023-03-05T20:32:54.733Z,97560.91
2023-03-05T20:38:20.960Z,97557.53
2023-03-05T20:43:24.217Z,97557.53
2023-03-05T20:48:29.261Z,97549.88
2023-03-05T20:53:31.859Z,97557.50
2023-03-05T20:58:34.564Z,97561.75
2023-03-05T21:03:38.861Z,97555.81
2023-03-05T21:08:41.999Z,97566.81
2023-03-05T21:13:45.004Z,97560.88
2023-03-05T21:18:48.177Z,97557.47
2023-03-05T21:23:50.882Z,97570.19
2023-03-05T21:28:53.592Z,97560.81
2023-03-05T21:33:56.721Z,97570.06
2023-03-05T21:39:00.350Z,97554.72
2023-03-05T21:44:04.231Z,97585.22
2023-03-05T21:49:07.055Z,97579.31
2023-03-05T21:54:09.934Z,97578.41
2023-03-05T21:59:12.600Z,97579.31
2023-03-05T22:04:15.257Z,97566.59
2023-03-05T22:09:17.962Z,97583.59
2023-03-05T22:14:20.628Z,97565.81
2023-03-05T22:19:23.226Z,97582.75
2023-03-05T22:24:25.864Z,97573.50
2023-03-05T22:29:28.780Z,97565.78
2023-03-05T22:34:31.372Z,97571.75
2023-03-05T22:39:34.064Z,97585.22
2023-03-05T22:44:36.899Z,97579.31
2023-03-05T22:49:39.530Z,97581.97
2023-03-05T22:54:42.223Z,97560.75
2023-03-05T22:59:44.879Z,97568.34
2023-03-05T23:04:49.743Z,97578.56
2023-03-05T23:09:58.650Z,97584.53
2023-03-05T23:15:03.969Z,97574.31
2023-03-05T23:20:11.624Z,97576.03
2023-03-05T23:25:16.621Z,97570.88
2023-03-05T23:30:20.150Z,97574.97
2023-03-05T23:35:29.003Z,97581.84
2023-03-05T23:40:34.682Z,97559.03
2023-03-05T23:45:37.819Z,97575.16
2023-03-05T23:50:42.569Z,97576.81
2023-03-05T23:55:45.336Z,97569.94
